Airfield :
LOGIN :

Register | Disclaimer

   EN    FR    IT 

 










Legend :    VFR   Marginal VFR   IFR   Intensive IFR   Very Intensive IFR
Visi :
Ceiling :
>= 8 km
>= 3000ft
5 to 8 km
1000 to 3000 ft
1500m to 5 km
500 to 1000 ft
800 to 1500m
200 to 500 ft
< 800m
< 200 ft
Symbols :   Thunderstorms  Fog  Heavy snow  Heavy precipitations  Wind > 20 kt
SIGMETs :     Misc.  Thunderstorms  Icing  Turbulence  Mountain Waves  Volcanic Ashes






- Airport Elevation : 1465 ft


LSMP - Payerne

CURRENT METAR :
  • 280550Z AUTO 25010KT 9999NDV -RA FEW035 SCT045 OVC059 08/07 Q1015 RMK

EXPIRED METARs :
  • 280520Z AUTO 26007KT 9999NDV -SHRA FEW029 SCT038 OVC049 08/07 Q1015 RMK
  • 280450Z AUTO 24004KT 200V270 9999NDV -SHRA BKN055 OVC063 09/06 Q1015 RMK
  • 280420Z AUTO 26004KT 9999NDV OVC050 09/06 Q1014 RMK
  • 280350Z AUTO 26005KT 230V300 9999NDV BKN048 BKN063 OVC076 09/05 Q1014 RMK
  • 280320Z AUTO 22005KT 180V250 9999NDV -SHRA OVC055 09/04 Q1014 RMK

Expired Forecast.



MET'MAP, your aeronautical weather chart ! - Copyright ORBIFLY December 2007 - Disclaimer

ORBIFLY MET'MAP TEAM :

Programming & Development : Alexandra Zaïnal
Concept & original design : Baudouin d'Aumeries
Assistance for programming : Marc-Olivier Méhu
Technical & hardware support : Manuel Goepfert

Contact : metmap@orbifly.com




SOURCES & CREDITS :

   NOAA